Time;durP1;ratioP1;P1;durP2;ratioP2;P2;SDS_P1;SDS_P2;PMS_P1;PMS_P2;Temp;Humidity;BMP_temperature;BMP_pressure;BME280_temperature;BME280_humidity;BME280_pressure;Samples;Min_cycle;Max_cycle;Signal;HPM_P1;HPM_P2
2023/09/20 00:00:07;;;;;;;1.80;1.35;;;17.00;80.50;;;;;;4974616;28;20034;-62
2023/09/20 00:02:33;;;;;;;2.10;1.58;;;17.00;80.80;;;;;;4973624;28;20530;-62
2023/09/20 00:05:00;;;;;;;1.50;1.40;;;16.90;80.80;;;;;;4973905;28;20081;-62
2023/09/20 00:07:26;;;;;;;1.67;1.27;;;16.80;81.00;;;;;;4973420;28;20538;-63
2023/09/20 00:09:52;;;;;;;1.92;1.70;;;16.80;81.20;;;;;;4969753;28;20061;-62
2023/09/20 00:12:18;;;;;;;1.40;1.30;;;16.70;81.30;;;;;;4971251;28;20031;-62
2023/09/20 00:14:44;;;;;;;1.55;1.45;;;16.80;81.40;;;;;;4971074;28;20403;-62
2023/09/20 00:17:09;;;;;;;1.38;1.20;;;16.80;81.30;;;;;;4966304;28;20062;-62
2023/09/20 00:19:38;;;;;;;1.42;1.27;;;16.80;81.20;;;;;;4953476;28;20098;-63
2023/09/20 00:22:05;;;;;;;1.58;1.42;;;16.70;81.20;;;;;;4968076;28;20046;-62
2023/09/20 00:24:33;;;;;;;1.38;1.27;;;16.70;81.20;;;;;;4975652;28;20573;-62
2023/09/20 00:26:59;;;;;;;2.58;1.40;;;16.70;81.20;;;;;;4975552;28;20618;-62
2023/09/20 00:29:26;;;;;;;1.50;1.40;;;16.70;81.30;;;;;;4974080;28;20068;-62
2023/09/20 00:31:52;;;;;;;1.50;1.40;;;16.70;81.40;;;;;;4977037;28;20039;-63
2023/09/20 00:34:17;;;;;;;1.83;1.20;;;16.70;81.30;;;;;;4973056;28;20038;-62
2023/09/20 00:36:44;;;;;;;1.45;1.30;;;16.70;81.10;;;;;;4974304;28;20158;-62
2023/09/20 00:39:10;;;;;;;1.90;1.42;;;16.60;81.00;;;;;;4975909;28;20077;-62
2023/09/20 00:41:36;;;;;;;1.83;1.73;;;16.60;81.70;;;;;;4975690;28;20038;-63
2023/09/20 00:44:02;;;;;;;1.45;1.35;;;16.60;80.90;;;;;;4977590;28;20031;-62
2023/09/20 00:46:29;;;;;;;1.40;1.30;;;16.50;81.70;;;;;;4971905;28;20426;-63
2023/09/20 00:48:56;;;;;;;3.08;1.55;;;16.40;80.80;;;;;;4974095;28;20038;-62
2023/09/20 00:51:23;;;;;;;3.05;1.23;;;16.30;80.80;;;;;;4976568;28;20453;-62
2023/09/20 00:53:52;;;;;;;1.88;1.40;;;16.30;81.10;;;;;;4976076;28;20533;-62
2023/09/20 00:56:18;;;;;;;1.65;1.48;;;16.30;81.30;;;;;;4975681;28;20449;-62
2023/09/20 00:58:45;;;;;;;2.67;1.30;;;16.20;81.40;;;;;;4972681;28;20050;-62
2023/09/20 01:01:11;;;;;;;1.83;1.30;;;16.20;81.50;;;;;;4953084;28;20031;-63
2023/09/20 01:03:37;;;;;;;2.40;1.60;;;16.20;81.40;;;;;;4965933;28;20047;-62
2023/09/20 01:06:05;;;;;;;1.90;1.15;;;16.20;81.40;;;;;;4955261;28;20038;-62
2023/09/20 01:08:32;;;;;;;2.50;1.38;;;16.10;81.50;;;;;;4970159;28;20035;-62
2023/09/20 01:10:59;;;;;;;3.08;1.40;;;16.10;81.70;;;;;;4973964;28;20407;-62
2023/09/20 01:13:25;;;;;;;1.98;1.42;;;16.10;81.70;;;;;;4976105;28;20109;-62
2023/09/20 01:15:52;;;;;;;1.45;1.35;;;16.20;82.60;;;;;;4974870;28;20495;-62
2023/09/20 01:18:18;;;;;;;2.13;1.75;;;16.10;81.80;;;;;;4972486;28;20043;-62
2023/09/20 01:20:44;;;;;;;1.75;1.60;;;16.10;81.80;;;;;;4976868;28;20038;-62
2023/09/20 01:23:09;;;;;;;1.67;1.58;;;16.20;81.90;;;;;;4975208;28;20450;-62
2023/09/20 01:25:40;;;;;;;2.13;1.50;;;16.10;81.80;;;;;;4975677;28;20041;-62
2023/09/20 01:28:08;;;;;;;2.08;1.70;;;16.20;82.00;;;;;;4961112;28;20035;-62
2023/09/20 01:30:36;;;;;;;2.60;1.67;;;16.10;82.20;;;;;;4955154;28;20428;-62
2023/09/20 01:33:05;;;;;;;1.60;1.50;;;16.10;82.40;;;;;;4970279;28;20038;-62
2023/09/20 01:35:31;;;;;;;1.80;1.45;;;16.10;82.60;;;;;;4972189;28;20043;-62
2023/09/20 01:38:04;;;;;;;1.63;1.48;;;16.00;82.80;;;;;;4975624;28;20035;-62
2023/09/20 01:40:33;;;;;;;2.25;1.90;;;16.10;83.10;;;;;;4972068;28;20184;-63
2023/09/20 01:42:59;;;;;;;3.45;2.80;;;16.10;83.10;;;;;;4976235;28;20026;-62
2023/09/20 01:45:25;;;;;;;6.80;4.15;;;16.10;83.10;;;;;;4974301;28;20038;-62
2023/09/20 01:47:53;;;;;;;8.68;5.60;;;16.10;83.20;;;;;;4973998;28;20038;-62
2023/09/20 01:50:23;;;;;;;7.70;4.90;;;16.10;83.20;;;;;;4975127;28;20134;-62
2023/09/20 01:52:56;;;;;;;9.65;5.57;;;16.20;83.30;;;;;;4972433;28;20066;-62
2023/09/20 01:55:23;;;;;;;11.43;6.43;;;16.20;83.50;;;;;;4974607;28;20046;-61
2023/09/20 01:57:54;;;;;;;11.52;6.75;;;16.20;83.10;;;;;;4975032;28;20035;-62
2023/09/20 02:00:25;;;;;;;12.35;6.47;;;16.20;83.00;;;;;;4976951;28;20121;-62
2023/09/20 02:02:54;;;;;;;5.50;4.15;;;16.20;83.10;;;;;;4976985;28;20114;-62
2023/09/20 02:05:23;;;;;;;4.22;3.22;;;16.20;83.30;;;;;;4976825;28;20105;-62
2023/09/20 02:07:50;;;;;;;4.88;2.78;;;16.20;83.30;;;;;;4976892;28;20118;-61
2023/09/20 02:10:17;;;;;;;5.40;2.35;;;16.20;83.30;;;;;;4976625;28;20074;-62
2023/09/20 02:12:51;;;;;;;2.70;2.50;;;16.20;83.30;;;;;;4975216;28;20572;-62
2023/09/20 02:15:17;;;;;;;2.15;1.95;;;16.20;83.40;;;;;;4976956;28;20518;-61
2023/09/20 02:17:44;;;;;;;3.55;2.40;;;16.20;83.20;;;;;;4975914;28;20027;-62
2023/09/20 02:20:19;;;;;;;2.20;2.00;;;16.20;83.10;;;;;;4975862;28;20038;-61
2023/09/20 02:22:50;;;;;;;2.17;2.00;;;16.20;82.90;;;;;;4976746;28;20548;-62
2023/09/20 02:25:24;;;;;;;2.55;2.28;;;16.20;82.90;;;;;;4976480;28;20050;-61
2023/09/20 02:27:57;;;;;;;2.45;2.20;;;16.20;82.90;;;;;;4976373;28;20065;-62
2023/09/20 02:30:28;;;;;;;3.35;2.28;;;16.10;83.10;;;;;;4975341;28;20039;-62
2023/09/20 02:32:57;;;;;;;2.17;1.95;;;16.10;83.00;;;;;;4975427;28;20417;-62
2023/09/20 02:35:24;;;;;;;2.70;2.13;;;16.10;83.20;;;;;;4975293;28;20692;-62
2023/09/20 02:37:50;;;;;;;2.33;2.13;;;16.00;83.30;;;;;;4976058;28;20045;-62
2023/09/20 02:40:17;;;;;;;3.03;2.30;;;16.00;83.40;;;;;;4977193;28;20542;-60
2023/09/20 02:42:51;;;;;;;2.67;2.45;;;16.00;83.30;;;;;;4975041;28;20034;-62
2023/09/20 02:45:18;;;;;;;2.28;2.08;;;16.00;83.90;;;;;;4975714;28;20271;-62
2023/09/20 02:47:48;;;;;;;3.08;2.17;;;16.00;83.60;;;;;;4976688;28;20030;-62
2023/09/20 02:50:16;;;;;;;2.90;2.05;;;15.90;83.80;;;;;;4975263;28;20064;-62
2023/09/20 02:52:45;;;;;;;3.92;2.35;;;15.90;84.10;;;;;;4974312;28;20782;-62
2023/09/20 02:55:12;;;;;;;3.42;1.98;;;15.90;84.30;;;;;;4975750;28;20050;-62
2023/09/20 02:57:39;;;;;;;2.42;2.22;;;16.00;84.30;;;;;;4975094;28;20434;-62
2023/09/20 03:00:15;;;;;;;3.28;2.28;;;16.00;84.40;;;;;;4971662;28;20466;-62
2023/09/20 03:02:47;;;;;;;4.05;2.00;;;16.00;84.30;;;;;;4976311;28;20057;-62
2023/09/20 03:05:17;;;;;;;3.13;2.20;;;16.00;84.30;;;;;;4972559;28;20047;-62
2023/09/20 03:07:48;;;;;;;2.13;1.92;;;16.00;83.90;;;;;;4973569;28;20507;-62
2023/09/20 03:10:16;;;;;;;4.50;1.92;;;16.00;83.80;;;;;;4975502;28;20289;-62
2023/09/20 03:12:46;;;;;;;2.10;1.90;;;16.00;83.60;;;;;;4974894;28;20041;-62
2023/09/20 03:15:16;;;;;;;2.78;2.13;;;16.00;83.60;;;;;;4975070;28;20498;-62
2023/09/20 03:17:43;;;;;;;2.33;2.03;;;16.00;83.30;;;;;;4976080;28;20041;-61
2023/09/20 03:20:12;;;;;;;4.00;2.17;;;15.90;83.30;;;;;;4975892;28;20266;-62
2023/09/20 03:22:38;;;;;;;3.45;2.38;;;15.90;83.50;;;;;;4973410;28;20471;-62
2023/09/20 03:25:05;;;;;;;3.10;1.85;;;15.80;83.50;;;;;;4975359;28;20039;-62
2023/09/20 03:27:31;;;;;;;4.00;3.08;;;15.80;83.60;;;;;;4975504;28;20089;-62
2023/09/20 03:29:57;;;;;;;2.67;2.20;;;15.80;83.50;;;;;;4975551;28;20533;-62
2023/09/20 03:32:23;;;;;;;2.60;2.40;;;15.80;83.30;;;;;;4975177;28;20399;-62
2023/09/20 03:34:49;;;;;;;2.75;2.28;;;15.70;83.20;;;;;;4974816;28;20411;-62
2023/09/20 03:37:17;;;;;;;2.60;2.20;;;15.70;83.20;;;;;;4975922;28;20039;-62
2023/09/20 03:39:43;;;;;;;3.13;2.13;;;15.60;83.10;;;;;;4975776;28;20113;-62
2023/09/20 03:42:11;;;;;;;2.25;2.10;;;15.60;83.30;;;;;;4976872;28;20161;-62
2023/09/20 03:44:39;;;;;;;2.20;2.00;;;15.60;83.50;;;;;;4975725;28;20118;-62
2023/09/20 03:47:05;;;;;;;3.28;2.17;;;15.50;83.40;;;;;;4976792;28;20030;-62
2023/09/20 03:49:31;;;;;;;2.63;2.10;;;15.50;83.40;;;;;;4976342;28;20118;-62
2023/09/20 03:52:00;;;;;;;1.85;1.75;;;15.50;83.40;;;;;;4975971;28;20153;-62
2023/09/20 03:54:26;;;;;;;2.90;2.08;;;15.40;83.40;;;;;;4974121;28;20062;-63
2023/09/20 03:56:52;;;;;;;2.85;2.22;;;15.40;83.50;;;;;;4979023;28;20481;-62
2023/09/20 03:59:18;;;;;;;4.18;2.17;;;15.40;83.80;;;;;;4980973;28;20043;-62
2023/09/20 04:01:44;;;;;;;2.38;2.17;;;15.40;84.40;;;;;;4980260;28;20182;-62
2023/09/20 04:04:09;;;;;;;2.10;2.00;;;15.30;83.50;;;;;;4979747;28;20501;-62
2023/09/20 04:06:35;;;;;;;2.47;2.13;;;15.30;83.80;;;;;;4973542;28;20578;-62
2023/09/20 04:09:09;;;;;;;2.15;1.90;;;15.30;84.00;;;;;;4954566;28;20035;-62
2023/09/20 04:11:42;;;;;;;2.15;1.95;;;15.20;83.70;;;;;;4967094;28;20037;-60
2023/09/20 04:14:08;;;;;;;2.45;2.20;;;15.20;84.00;;;;;;4979066;28;20069;-62
2023/09/20 04:16:36;;;;;;;2.50;1.98;;;15.20;84.00;;;;;;4961406;28;20475;-62
2023/09/20 04:19:02;;;;;;;2.17;2.00;;;15.20;83.90;;;;;;4964617;28;20113;-62
2023/09/20 04:21:27;;;;;;;2.85;2.10;;;15.20;83.70;;;;;;4979331;28;20467;-62
2023/09/20 04:23:53;;;;;;;3.67;1.80;;;15.20;83.80;;;;;;4965658;28;20035;-61
2023/09/20 04:26:18;;;;;;;2.45;2.25;;;15.20;84.00;;;;;;4957471;28;20051;-62
2023/09/20 04:28:47;;;;;;;2.80;2.00;;;15.20;83.90;;;;;;4976828;28;20038;-63
2023/09/20 04:31:13;;;;;;;2.78;2.28;;;15.10;83.60;;;;;;4978252;28;20470;-62
2023/09/20 04:33:39;;;;;;;2.65;2.20;;;15.20;83.40;;;;;;4979163;28;20062;-62
2023/09/20 04:36:04;;;;;;;5.07;2.35;;;15.10;83.40;;;;;;4979347;28;20082;-62
2023/09/20 04:38:31;;;;;;;2.20;2.05;;;15.00;83.40;;;;;;4979173;28;20058;-62
2023/09/20 04:40:59;;;;;;;2.03;1.92;;;14.90;83.80;;;;;;4979392;28;20061;-61
2023/09/20 04:43:25;;;;;;;2.15;2.00;;;14.90;84.00;;;;;;4979875;28;20429;-62
2023/09/20 04:45:51;;;;;;;2.53;2.33;;;14.90;84.10;;;;;;4980008;28;20371;-61
2023/09/20 04:48:17;;;;;;;2.47;2.25;;;14.90;83.90;;;;;;4979825;28;20068;-62
2023/09/20 04:50:42;;;;;;;3.25;2.25;;;14.90;84.00;;;;;;4979638;28;20040;-62
2023/09/20 04:53:08;;;;;;;4.00;2.15;;;14.90;83.90;;;;;;4979009;28;20038;-62
2023/09/20 04:55:34;;;;;;;2.88;2.45;;;14.90;83.90;;;;;;4979088;28;20061;-62
2023/09/20 04:58:03;;;;;;;2.22;2.10;;;14.90;83.80;;;;;;4978839;28;20169;-62
2023/09/20 05:00:37;;;;;;;2.67;2.47;;;14.90;83.90;;;;;;4978312;28;20461;-62
2023/09/20 05:03:03;;;;;;;3.43;2.10;;;14.80;83.80;;;;;;4978521;28;20023;-62
2023/09/20 05:05:29;;;;;;;2.35;2.15;;;14.80;83.60;;;;;;4978368;28;20046;-62
2023/09/20 05:07:54;;;;;;;3.30;2.30;;;14.80;83.70;;;;;;4978269;28;20052;-62
2023/09/20 05:10:20;;;;;;;3.00;2.20;;;14.70;83.60;;;;;;4975638;28;20098;-62
2023/09/20 05:12:48;;;;;;;3.70;2.33;;;14.80;83.60;;;;;;4958473;28;20057;-61
2023/09/20 05:15:15;;;;;;;2.45;2.25;;;14.70;83.80;;;;;;4964978;28;20092;-61
2023/09/20 05:17:43;;;;;;;2.65;2.17;;;14.80;84.00;;;;;;4978602;28;20334;-61
2023/09/20 05:20:13;;;;;;;3.30;2.45;;;14.70;84.10;;;;;;4978989;28;20190;-62
2023/09/20 05:22:39;;;;;;;3.45;2.35;;;14.70;84.00;;;;;;4978176;28;20093;-62
2023/09/20 05:25:07;;;;;;;3.75;2.40;;;14.70;83.90;;;;;;4978309;28;20601;-62
2023/09/20 05:27:32;;;;;;;2.85;2.30;;;14.60;83.80;;;;;;4978608;28;20089;-62
2023/09/20 05:29:58;;;;;;;3.60;2.38;;;14.60;84.00;;;;;;4978314;28;20431;-61
2023/09/20 05:32:23;;;;;;;3.95;2.60;;;14.60;84.20;;;;;;4978546;28;20065;-62
2023/09/20 05:34:50;;;;;;;2.85;2.65;;;14.50;84.60;;;;;;4978168;28;20034;-62
2023/09/20 05:37:16;;;;;;;2.47;2.28;;;14.50;85.00;;;;;;4979070;28;20039;-62
2023/09/20 05:39:43;;;;;;;2.53;2.33;;;14.50;85.20;;;;;;4978476;28;20081;-62
2023/09/20 05:42:09;;;;;;;2.28;2.08;;;14.50;85.20;;;;;;4978451;28;20058;-62
2023/09/20 05:44:36;;;;;;;2.42;2.22;;;14.50;85.20;;;;;;4977469;28;20465;-62
2023/09/20 05:47:03;;;;;;;2.47;2.28;;;14.50;85.30;;;;;;4977915;28;20031;-62
2023/09/20 05:49:29;;;;;;;2.28;2.15;;;14.50;85.70;;;;;;4977196;28;20114;-62
2023/09/20 05:51:56;;;;;;;3.03;2.45;;;14.50;85.90;;;;;;4978759;28;20049;-61
2023/09/20 05:54:22;;;;;;;3.28;2.40;;;14.40;86.00;;;;;;4977272;28;20454;-62
2023/09/20 05:56:48;;;;;;;2.47;2.28;;;14.50;86.20;;;;;;4977364;28;20052;-62
2023/09/20 05:59:14;;;;;;;2.55;2.30;;;14.50;86.40;;;;;;4978246;28;20030;-62
2023/09/20 06:01:40;;;;;;;2.95;2.45;;;14.60;86.60;;;;;;4977400;28;20039;-62
2023/09/20 06:04:09;;;;;;;3.58;2.45;;;14.60;86.50;;;;;;4978436;28;20070;-61
2023/09/20 06:06:37;;;;;;;2.60;2.40;;;14.70;86.70;;;;;;4977462;28;20410;-61
2023/09/20 06:09:03;;;;;;;3.92;2.42;;;14.70;86.40;;;;;;4978551;28;20034;-62
2023/09/20 06:11:29;;;;;;;3.38;2.45;;;14.80;87.30;;;;;;4972379;28;20033;-62
2023/09/20 06:13:54;;;;;;;4.10;2.50;;;14.80;86.50;;;;;;4978250;28;20111;-62
2023/09/20 06:16:20;;;;;;;4.20;2.75;;;14.80;86.60;;;;;;4975805;28;20490;-61
2023/09/20 06:18:48;;;;;;;3.75;3.10;;;14.80;86.50;;;;;;4974682;28;20710;-62
2023/09/20 06:21:14;;;;;;;3.35;2.85;;;14.90;86.60;;;;;;4975567;28;20105;-61
2023/09/20 06:23:40;;;;;;;3.65;3.00;;;14.90;86.70;;;;;;4972768;28;20118;-62
2023/09/20 06:26:09;;;;;;;3.22;2.80;;;14.90;86.90;;;;;;4978024;28;20038;-61
2023/09/20 06:28:36;;;;;;;3.10;2.67;;;14.80;86.90;;;;;;4977731;28;20391;-61
2023/09/20 06:31:01;;;;;;;3.40;3.10;;;14.80;87.30;;;;;;4977794;28;20494;-62
2023/09/20 06:33:27;;;;;;;3.90;3.60;;;14.80;87.60;;;;;;4975707;28;20046;-62
2023/09/20 06:35:55;;;;;;;3.33;3.03;;;14.80;88.00;;;;;;4977840;28;20034;-63
2023/09/20 06:38:23;;;;;;;4.05;2.90;;;14.80;88.10;;;;;;4976983;28;20045;-62
2023/09/20 06:40:52;;;;;;;3.70;3.05;;;14.80;88.30;;;;;;4977009;28;20394;-61
2023/09/20 06:43:18;;;;;;;5.43;3.80;;;14.80;88.50;;;;;;4976798;28;20031;-62
2023/09/20 06:45:51;;;;;;;5.15;4.38;;;14.90;88.40;;;;;;4976638;28;20568;-62
2023/09/20 06:48:23;;;;;;;5.93;4.80;;;14.90;88.80;;;;;;4977734;28;20038;-62
2023/09/20 06:50:50;;;;;;;5.80;4.35;;;15.00;89.00;;;;;;4977615;28;20034;-62
2023/09/20 06:53:17;;;;;;;5.97;4.35;;;15.00;88.90;;;;;;4977583;28;20042;-62
2023/09/20 06:55:49;;;;;;;5.45;4.68;;;15.00;89.00;;;;;;4976665;28;20037;-62
2023/09/20 06:58:16;;;;;;;9.00;4.53;;;15.10;89.20;;;;;;4977387;28;20129;-60
2023/09/20 07:00:42;;;;;;;4.45;3.85;;;15.20;89.30;;;;;;4975872;28;20023;-61
2023/09/20 07:03:08;;;;;;;4.55;4.15;;;15.20;89.30;;;;;;4977686;28;20022;-61
2023/09/20 07:05:34;;;;;;;4.88;4.38;;;15.30;89.30;;;;;;4977315;28;20034;-61
2023/09/20 07:08:00;;;;;;;5.28;4.68;;;15.40;89.40;;;;;;4977178;28;20589;-61
2023/09/20 07:10:31;;;;;;;4.78;4.32;;;15.40;89.50;;;;;;4974715;28;20035;-62
2023/09/20 07:12:57;;;;;;;4.75;4.30;;;15.50;89.50;;;;;;4976361;28;20502;-62
2023/09/20 07:15:28;;;;;;;5.10;4.07;;;15.60;89.30;;;;;;4976865;28;20042;-62
2023/09/20 07:18:00;;;;;;;6.28;4.25;;;15.60;89.40;;;;;;4977522;28;20430;-62
2023/09/20 07:20:28;;;;;;;5.05;4.07;;;15.60;89.50;;;;;;4976675;28;20066;-61
2023/09/20 07:22:54;;;;;;;4.45;4.05;;;15.70;90.00;;;;;;4977211;28;20018;-62
2023/09/20 07:25:21;;;;;;;6.80;4.57;;;15.80;90.10;;;;;;4976688;28;20459;-62
2023/09/20 07:27:49;;;;;;;4.30;3.90;;;15.80;90.20;;;;;;4974822;28;20414;-61
2023/09/20 07:30:19;;;;;;;4.35;3.97;;;15.80;90.20;;;;;;4973469;28;20491;-61
2023/09/20 07:32:46;;;;;;;5.65;4.07;;;15.90;90.20;;;;;;4955105;28;20042;-62
2023/09/20 07:35:28;;;;;;;5.85;4.00;;;15.90;90.20;;;;;;4966306;28;20043;-62
2023/09/20 07:37:57;;;;;;;7.97;3.78;;;16.00;90.20;;;;;;4957237;28;20046;-62
2023/09/20 07:40:28;;;;;;;5.63;3.75;;;16.00;90.20;;;;;;4966732;28;20046;-62
2023/09/20 07:43:04;;;;;;;5.63;3.88;;;16.20;90.60;;;;;;4947045;28;20809;-61
2023/09/20 07:45:42;;;;;;;4.22;3.92;;;16.20;90.60;;;;;;4976495;28;20047;-61
2023/09/20 07:48:16;;;;;;;5.88;3.88;;;16.30;90.30;;;;;;4975797;28;20031;-62
2023/09/20 07:50:43;;;;;;;4.68;4.25;;;16.40;90.30;;;;;;4975827;28;20097;-62
2023/09/20 07:53:15;;;;;;;7.80;3.92;;;16.50;90.20;;;;;;4976563;28;20042;-62
2023/09/20 07:55:44;;;;;;;3.88;3.58;;;16.60;90.60;;;;;;4976737;28;20046;-62
2023/09/20 07:58:10;;;;;;;3.85;3.55;;;16.60;90.00;;;;;;4977064;28;20118;-61
2023/09/20 08:00:44;;;;;;;6.55;3.67;;;16.70;90.00;;;;;;4975188;28;20418;-61
2023/09/20 08:03:10;;;;;;;4.73;3.53;;;16.80;90.10;;;;;;4973828;28;20057;-62
2023/09/20 08:05:37;;;;;;;5.25;3.58;;;16.90;90.00;;;;;;4977461;28;20402;-61
2023/09/20 08:08:04;;;;;;;6.03;3.78;;;17.00;89.90;;;;;;4978195;28;20034;-61
2023/09/20 08:10:30;;;;;;;6.13;4.18;;;17.10;89.70;;;;;;4974612;28;20454;-61
2023/09/20 08:12:57;;;;;;;4.18;3.60;;;17.20;89.40;;;;;;4978151;28;20031;-60
2023/09/20 08:15:23;;;;;;;3.92;3.53;;;17.30;89.30;;;;;;4977664;28;20038;-62
2023/09/20 08:20:37;;;;;;;3.88;3.33;;;17.40;89.10;;;;;;4976698;28;20037;-62
2023/09/20 09:01:38;;;;;;;2.00;1.50;;;19.20;84.40;;;;;;4979879;28;20095;-62
2023/09/20 09:04:06;;;;;;;1.90;1.30;;;19.30;84.00;;;;;;4981149;28;20027;-61
2023/09/20 09:06:32;;;;;;;1.67;1.55;;;19.40;83.10;;;;;;4980664;28;20045;-62
2023/09/20 09:08:58;;;;;;;2.35;1.40;;;19.50;82.70;;;;;;4981518;28;20034;-62
2023/09/20 09:11:24;;;;;;;3.88;1.40;;;19.60;82.00;;;;;;4977245;28;20035;-61
2023/09/20 09:13:51;;;;;;;3.65;1.35;;;19.70;81.90;;;;;;4980159;28;20093;-62
2023/09/20 09:16:19;;;;;;;2.78;1.40;;;19.80;81.20;;;;;;4980163;28;20499;-61
2023/09/20 09:18:45;;;;;;;1.55;1.33;;;19.90;80.50;;;;;;4979184;28;20502;-62
2023/09/20 09:21:14;;;;;;;2.58;1.42;;;19.90;80.10;;;;;;4980532;28;20039;-62
2023/09/20 09:23:45;;;;;;;2.85;1.80;;;20.00;79.40;;;;;;4979640;28;20030;-62
2023/09/20 09:26:11;;;;;;;1.85;1.25;;;20.10;79.30;;;;;;4980629;28;20082;-62
2023/09/20 09:28:45;;;;;;;1.52;1.42;;;20.20;79.10;;;;;;4978954;28;20034;-62
2023/09/20 09:31:12;;;;;;;1.63;1.50;;;20.30;78.00;;;;;;4980286;28;20413;-61
2023/09/20 09:33:39;;;;;;;3.65;1.48;;;20.30;79.00;;;;;;4979654;28;20096;-62
2023/09/20 09:36:05;;;;;;;4.10;1.65;;;20.50;78.90;;;;;;4979581;28;20490;-62
2023/09/20 09:38:35;;;;;;;2.00;1.50;;;20.50;78.30;;;;;;4979543;28;20126;-62
2023/09/20 09:41:02;;;;;;;2.38;1.33;;;20.60;78.00;;;;;;4980125;28;20030;-62
2023/09/20 09:43:31;;;;;;;4.55;1.30;;;20.70;77.70;;;;;;4977616;28;20441;-62
2023/09/20 09:46:24;;;;;;;2.25;1.60;;;20.80;77.70;;;;;;4977948;28;20062;-62
2023/09/20 09:48:51;;;;;;;4.45;1.30;;;20.90;76.30;;;;;;4976227;28;20037;-62
2023/09/20 09:51:17;;;;;;;2.28;1.10;;;21.00;76.60;;;;;;4980042;28;20051;-62
2023/09/20 09:53:45;;;;;;;2.58;1.20;;;21.10;76.60;;;;;;4979134;28;20113;-62
2023/09/20 09:56:12;;;;;;;1.13;0.90;;;21.20;76.60;;;;;;4979813;28;20043;-62
2023/09/20 09:58:37;;;;;;;1.92;1.10;;;21.20;75.90;;;;;;4979394;28;20034;-62
2023/09/20 10:01:06;;;;;;;1.25;1.05;;;21.30;75.40;;;;;;4980446;28;20044;-62
2023/09/20 10:03:34;;;;;;;3.10;1.30;;;21.40;75.30;;;;;;4978161;28;20035;-63
2023/09/20 10:06:08;;;;;;;3.28;1.20;;;21.50;74.90;;;;;;4979379;28;20114;-63
2023/09/20 10:08:38;;;;;;;1.48;1.02;;;21.60;74.30;;;;;;4979171;28;20101;-63
2023/09/20 10:11:08;;;;;;;1.50;1.10;;;21.60;74.20;;;;;;4976457;28;20057;-62
2023/09/20 10:13:35;;;;;;;3.95;1.08;;;21.70;74.30;;;;;;4978667;28;20492;-62
2023/09/20 10:16:04;;;;;;;1.75;1.20;;;21.80;73.90;;;;;;4979687;28;20133;-62
2023/09/20 10:18:51;;;;;;;1.58;1.15;;;21.80;73.90;;;;;;4977868;28;20101;-63
2023/09/20 10:21:20;;;;;;;1.40;1.15;;;21.90;72.80;;;;;;4979511;28;20270;-61
2023/09/20 10:24:17;;;;;;;1.80;1.27;;;22.00;73.50;;;;;;4979382;28;20054;-63
2023/09/20 10:26:43;;;;;;;1.20;1.00;;;22.10;72.30;;;;;;4978089;28;20074;-63
2023/09/20 10:29:28;;;;;;;1.15;0.90;;;22.20;73.00;;;;;;4978703;28;20037;-62
2023/09/20 10:32:17;;;;;;;1.40;0.93;;;22.20;72.10;;;;;;4978618;28;20031;-63
2023/09/20 10:35:27;;;;;;;1.40;1.30;;;22.30;72.00;;;;;;4977906;28;20125;-62
2023/09/20 10:38:05;;;;;;;2.05;0.95;;;22.40;70.70;;;;;;4978409;28;20038;-63
2023/09/20 10:40:45;;;;;;;0.77;0.77;;;22.50;71.50;;;;;;4977778;28;20034;-63
2023/09/20 10:43:44;;;;;;;0.80;0.80;;;22.60;71.10;;;;;;4978342;28;20118;-63
2023/09/20 10:46:10;;;;;;;3.55;1.10;;;22.70;71.40;;;;;;4975410;28;20129;-62
2023/09/20 10:48:41;;;;;;;3.65;0.88;;;22.70;70.70;;;;;;4977630;28;20418;-62
2023/09/20 10:51:07;;;;;;;1.38;0.93;;;22.70;69.20;;;;;;4976245;28;20034;-62
2023/09/20 10:53:44;;;;;;;2.03;0.90;;;22.80;69.60;;;;;;4976232;28;20076;-63
2023/09/20 10:56:30;;;;;;;2.05;1.23;;;22.80;69.00;;;;;;4978219;28;20026;-63
2023/09/20 10:58:59;;;;;;;1.15;0.90;;;22.80;69.90;;;;;;4977720;28;20041;-63
2023/09/20 11:01:25;;;;;;;0.90;0.63;;;22.90;69.40;;;;;;4978290;28;20042;-62
2023/09/20 11:03:51;;;;;;;1.52;1.00;;;23.00;69.40;;;;;;4978102;28;20027;-63
2023/09/20 11:06:17;;;;;;;1.20;0.95;;;23.00;69.30;;;;;;4978381;28;20097;-61
2023/09/20 11:08:44;;;;;;;1.35;0.90;;;23.00;69.40;;;;;;4977956;28;20030;-63
2023/09/20 11:11:15;;;;;;;2.42;0.85;;;23.10;69.30;;;;;;4975975;28;20403;-63
2023/09/20 11:13:46;;;;;;;1.58;0.70;;;23.20;68.30;;;;;;4978082;28;20440;-62
2023/09/20 11:16:13;;;;;;;2.17;0.93;;;23.20;68.80;;;;;;4978532;28;20038;-63
2023/09/20 11:18:41;;;;;;;2.22;0.70;;;23.30;68.80;;;;;;4977352;28;20447;-62
2023/09/20 11:21:07;;;;;;;0.70;0.70;;;23.40;68.20;;;;;;4977969;28;20061;-63
2023/09/20 11:23:34;;;;;;;1.63;0.52;;;23.40;68.00;;;;;;4978088;28;20065;-62
2023/09/20 11:25:59;;;;;;;0.88;0.65;;;23.50;67.50;;;;;;4978021;28;20319;-62
2023/09/20 11:28:27;;;;;;;1.00;0.73;;;23.50;66.00;;;;;;4976742;28;20043;-62
2023/09/20 11:30:52;;;;;;;1.23;0.75;;;23.60;65.90;;;;;;4978108;28;20117;-62
2023/09/20 11:33:28;;;;;;;2.47;0.70;;;23.60;65.60;;;;;;4977702;28;20142;-62
2023/09/20 11:35:54;;;;;;;1.05;0.73;;;23.60;64.60;;;;;;4978297;28;20041;-62
2023/09/20 11:38:21;;;;;;;0.85;0.70;;;23.60;66.20;;;;;;4978032;28;20050;-62
2023/09/20 11:40:47;;;;;;;1.23;0.60;;;23.70;66.20;;;;;;4977694;28;20030;-63
2023/09/20 11:43:20;;;;;;;1.08;0.68;;;23.80;66.30;;;;;;4978549;28;20034;-63
2023/09/20 11:45:47;;;;;;;1.15;0.50;;;23.90;65.20;;;;;;4977567;28;20042;-63
2023/09/20 11:48:13;;;;;;;0.80;0.60;;;23.90;65.30;;;;;;4977691;28;20049;-63
2023/09/20 11:50:45;;;;;;;1.10;0.80;;;24.00;64.50;;;;;;4977229;28;20047;-62
2023/09/20 11:53:15;;;;;;;0.60;0.60;;;24.10;62.90;;;;;;4978058;28;20050;-63
2023/09/20 11:55:43;;;;;;;0.93;0.60;;;24.10;63.00;;;;;;4977086;28;20075;-61
2023/09/20 11:58:10;;;;;;;0.63;0.60;;;24.20;62.80;;;;;;4977276;28;20031;-63
2023/09/20 12:00:36;;;;;;;1.38;0.68;;;24.20;62.90;;;;;;4976045;28;20023;-63
2023/09/20 12:03:02;;;;;;;1.35;0.63;;;24.30;63.40;;;;;;4971199;28;20038;-61
2023/09/20 12:05:28;;;;;;;0.70;0.50;;;24.30;63.10;;;;;;4976767;28;20035;-63
2023/09/20 12:07:59;;;;;;;1.45;0.80;;;24.40;63.10;;;;;;4977743;28;20037;-63
2023/09/20 12:10:26;;;;;;;0.60;0.40;;;24.40;63.10;;;;;;4976248;28;20126;-63
2023/09/20 12:12:52;;;;;;;1.77;0.60;;;24.50;62.20;;;;;;4974425;28;20255;-63
2023/09/20 12:15:24;;;;;;;0.95;0.60;;;24.50;62.20;;;;;;4978298;28;20444;-63
2023/09/20 12:17:56;;;;;;;0.45;0.40;;;24.50;62.40;;;;;;4981529;28;20571;-63
2023/09/20 12:20:24;;;;;;;0.93;0.60;;;24.60;62.60;;;;;;4980434;28;20038;-63
2023/09/20 12:22:50;;;;;;;0.68;0.65;;;24.60;62.60;;;;;;4978173;28;20417;-61
2023/09/20 12:25:17;;;;;;;0.80;0.60;;;24.60;62.70;;;;;;4962265;28;20034;-61
2023/09/20 12:27:43;;;;;;;0.73;0.60;;;24.70;62.20;;;;;;4972194;28;20109;-62
2023/09/20 12:30:11;;;;;;;1.08;0.47;;;24.70;61.20;;;;;;4981384;28;20518;-62
2023/09/20 12:32:41;;;;;;;1.15;0.50;;;24.70;61.40;;;;;;4980394;28;20082;-63
2023/09/20 12:35:09;;;;;;;0.70;0.70;;;24.80;61.50;;;;;;4981010;28;20119;-62
2023/09/20 12:37:35;;;;;;;0.88;0.60;;;24.80;61.20;;;;;;4980829;28;20469;-63
2023/09/20 12:40:04;;;;;;;1.67;0.60;;;24.80;60.60;;;;;;4980769;28;20122;-63
2023/09/20 12:42:33;;;;;;;0.60;0.50;;;24.90;60.30;;;;;;4980422;28;21025;-63
2023/09/20 12:45:01;;;;;;;6.30;0.63;;;24.90;60.10;;;;;;4981201;28;20475;-62
2023/09/20 12:47:27;;;;;;;1.13;0.57;;;24.80;60.60;;;;;;4981049;28;20027;-63
2023/09/20 12:49:53;;;;;;;0.50;0.50;;;24.80;60.50;;;;;;4981114;28;20038;-63
2023/09/20 12:52:18;;;;;;;1.33;0.70;;;24.90;60.30;;;;;;4980369;28;20041;-63
2023/09/20 12:54:44;;;;;;;0.50;0.50;;;24.80;60.00;;;;;;4978865;28;20568;-63
2023/09/20 12:57:09;;;;;;;0.63;0.60;;;24.80;60.30;;;;;;4980345;28;20395;-63
2023/09/20 12:59:35;;;;;;;1.45;0.55;;;24.80;59.80;;;;;;4979825;28;20043;-62
2023/09/20 13:02:01;;;;;;;1.15;0.50;;;24.90;59.70;;;;;;4980836;28;20088;-63
2023/09/20 13:04:27;;;;;;;0.98;0.60;;;24.90;60.10;;;;;;4979681;28;20031;-63
2023/09/20 13:06:53;;;;;;;0.50;0.45;;;24.90;59.70;;;;;;4980833;28;20086;-63
2023/09/20 13:09:19;;;;;;;0.60;0.55;;;25.00;59.30;;;;;;4980876;28;20090;-63
2023/09/20 13:11:46;;;;;;;0.80;0.70;;;25.00;59.00;;;;;;4977707;28;20037;-63
2023/09/20 13:14:12;;;;;;;1.20;0.50;;;25.00;59.00;;;;;;4980043;28;20421;-62
2023/09/20 13:16:40;;;;;;;1.73;0.60;;;25.00;58.50;;;;;;4979389;28;20042;-62
2023/09/20 13:19:08;;;;;;;0.93;0.57;;;25.00;58.90;;;;;;4980942;28;20027;-63
2023/09/20 13:21:35;;;;;;;1.80;0.40;;;25.10;59.40;;;;;;4980380;28;20073;-63
2023/09/20 13:24:01;;;;;;;0.50;0.50;;;25.10;58.90;;;;;;4980967;28;20026;-63
2023/09/20 13:26:27;;;;;;;0.50;0.47;;;25.10;58.60;;;;;;4979941;28;20073;-63
2023/09/20 13:28:53;;;;;;;0.77;0.50;;;25.10;58.50;;;;;;4979219;28;20141;-63
2023/09/20 13:31:18;;;;;;;2.95;0.50;;;25.10;59.00;;;;;;4973383;28;20070;-63